Time;durP1;ratioP1;P1;durP2;ratioP2;P2;SDS_P1;SDS_P2;PMS_P1;PMS_P2;Temp;Humidity;BMP_temperature;BMP_pressure;BME280_temperature;BME280_humidity;BME280_pressure;Samples;Min_cycle;Max_cycle;Signal;HPM_P1;HPM_P2
2024/04/05 00:01:46;;;;;;;14.90;7.15;;;13.90;71.10;;;;;;5016296;28;20511;-72
2024/04/05 00:04:14;;;;;;;12.10;7.80;;;14.00;71.00;;;;;;4996238;28;20033;-73
2024/04/05 00:06:40;;;;;;;15.52;7.90;;;13.90;70.80;;;;;;5026179;28;20052;-71
2024/04/05 00:09:07;;;;;;;14.38;8.60;;;13.80;71.10;;;;;;5032147;28;20380;-71
2024/04/05 00:11:33;;;;;;;14.25;8.93;;;13.80;70.90;;;;;;5032320;28;20029;-72
2024/04/05 00:33:59;;;;;;;14.97;8.30;;;12.40;73.90;;;;;;5033632;28;20028;-72
2024/04/05 00:36:25;;;;;;;16.90;7.80;;;12.20;74.30;;;;;;5009658;28;20074;-71
2024/04/05 00:38:54;;;;;;;12.48;7.38;;;12.50;73.80;;;;;;5002427;28;20061;-71
2024/04/05 00:41:21;;;;;;;12.30;7.55;;;12.80;73.10;;;;;;5031356;28;20353;-70
2024/04/05 00:43:47;;;;;;;12.25;8.07;;;13.00;72.60;;;;;;5024485;28;20056;-71
2024/04/05 00:46:13;;;;;;;12.32;7.35;;;13.10;72.80;;;;;;5027810;28;20041;-72
2024/04/05 00:48:40;;;;;;;13.70;7.88;;;13.20;72.60;;;;;;5031614;28;20053;-72
2024/04/05 00:51:07;;;;;;;15.10;7.93;;;13.20;72.40;;;;;;5031296;28;20042;-71
2024/04/05 00:53:34;;;;;;;15.55;8.20;;;12.60;74.10;;;;;;5006838;28;20077;-73
2024/04/05 00:56:02;;;;;;;11.88;8.23;;;12.70;73.50;;;;;;5026768;28;20095;-72
2024/04/05 00:58:28;;;;;;;14.60;8.18;;;12.90;72.90;;;;;;5031389;28;20029;-72
2024/04/05 01:00:56;;;;;;;9.25;7.03;;;13.00;72.70;;;;;;4998969;28;20042;-72
2024/04/05 01:03:23;;;;;;;12.02;7.32;;;13.00;73.00;;;;;;5031868;28;20370;-71
2024/04/05 01:05:49;;;;;;;12.55;7.60;;;13.00;73.00;;;;;;5014653;28;20382;-73
2024/04/05 01:08:17;;;;;;;13.93;7.32;;;13.00;73.10;;;;;;5014798;28;20060;-72
2024/04/05 01:10:45;;;;;;;12.70;7.82;;;12.90;73.20;;;;;;5018655;28;20029;-71
2024/04/05 01:13:12;;;;;;;10.80;7.60;;;13.10;73.10;;;;;;5014566;28;20037;-71
2024/04/05 01:15:39;;;;;;;12.82;7.63;;;13.00;73.20;;;;;;5030972;28;20036;-73
2024/04/05 01:18:08;;;;;;;11.70;8.38;;;13.00;73.50;;;;;;5014519;28;20481;-72
2024/04/05 01:20:35;;;;;;;12.32;7.53;;;13.00;74.10;;;;;;5014181;28;20038;-71
2024/04/05 01:23:03;;;;;;;10.95;7.43;;;12.70;74.40;;;;;;4991319;28;20492;-71
2024/04/05 01:25:30;;;;;;;13.75;7.32;;;12.60;74.70;;;;;;5031605;28;20046;-72
2024/04/05 01:27:57;;;;;;;13.75;8.07;;;12.60;75.20;;;;;;5017831;28;20034;-71
2024/04/05 01:30:24;;;;;;;14.68;8.18;;;12.50;75.50;;;;;;5014842;28;20095;-71
2024/04/05 01:32:54;;;;;;;13.80;8.82;;;12.50;76.00;;;;;;5014179;28;20051;-71
2024/04/05 01:35:20;;;;;;;14.43;8.90;;;12.50;75.80;;;;;;5013797;28;20496;-73
2024/04/05 01:37:47;;;;;;;16.90;8.10;;;12.30;76.80;;;;;;5030889;28;20038;-72
2024/04/05 01:40:14;;;;;;;15.55;8.65;;;12.30;76.60;;;;;;4998099;28;20440;-73
2024/04/05 01:42:40;;;;;;;12.88;9.23;;;12.30;77.30;;;;;;5031360;28;20432;-73
2024/04/05 01:45:07;;;;;;;15.15;8.40;;;12.40;76.50;;;;;;4998080;28;20045;-70
2024/04/05 01:47:33;;;;;;;18.63;8.90;;;12.40;76.10;;;;;;5014184;28;20044;-73
2024/04/05 01:50:01;;;;;;;12.23;8.05;;;12.30;76.00;;;;;;5030266;28;20072;-73
2024/04/05 01:52:28;;;;;;;13.27;8.10;;;12.00;76.40;;;;;;5014452;28;20392;-72
2024/04/05 01:54:55;;;;;;;11.93;7.30;;;11.80;77.40;;;;;;5001523;28;20084;-74
2024/04/05 01:57:22;;;;;;;13.35;6.97;;;11.90;76.80;;;;;;5014516;28;20065;-72
2024/04/05 01:59:49;;;;;;;15.13;7.30;;;12.20;76.20;;;;;;5014457;28;20052;-71
2024/04/05 02:02:16;;;;;;;13.00;7.63;;;12.30;76.20;;;;;;5013556;28;20037;-73
2024/04/05 02:04:43;;;;;;;14.45;8.40;;;12.20;77.20;;;;;;5018100;28;20476;-72
2024/04/05 02:07:10;;;;;;;19.13;7.88;;;12.20;77.00;;;;;;5030237;28;20391;-73
2024/04/05 02:09:36;;;;;;;11.98;7.00;;;11.90;77.30;;;;;;5013901;28;20041;-72
2024/04/05 02:12:22;;;;;;;12.18;7.63;;;11.70;78.40;;;;;;5029456;28;20022;-73
2024/04/05 02:14:49;;;;;;;13.73;8.02;;;11.90;77.60;;;;;;5014030;28;20100;-72
2024/04/05 02:17:15;;;;;;;14.48;7.80;;;11.90;77.70;;;;;;4996927;28;20041;-72
2024/04/05 02:19:42;;;;;;;11.82;7.85;;;11.80;77.70;;;;;;5029725;28;20029;-71
2024/04/05 02:22:11;;;;;;;16.15;8.30;;;11.80;77.30;;;;;;5029345;28;20092;-72
2024/04/05 02:24:37;;;;;;;13.80;8.15;;;11.80;77.50;;;;;;5013672;28;20072;-71
2024/04/05 02:27:04;;;;;;;12.88;7.85;;;11.90;77.60;;;;;;5013924;28;20056;-72
2024/04/05 02:29:49;;;;;;;13.55;8.18;;;11.90;77.40;;;;;;5030101;28;20033;-71
2024/04/05 02:32:15;;;;;;;10.23;7.20;;;11.70;77.60;;;;;;5021539;28;20032;-73
2024/04/05 02:34:41;;;;;;;14.57;7.10;;;11.70;77.30;;;;;;5012960;28;20041;-72
2024/04/05 02:37:08;;;;;;;13.50;7.20;;;11.70;77.30;;;;;;5029574;28;20040;-71
2024/04/05 02:39:34;;;;;;;17.25;7.00;;;11.70;77.50;;;;;;5013533;28;20060;-71
2024/04/05 02:42:00;;;;;;;10.20;7.05;;;11.50;77.70;;;;;;5013253;28;20025;-72
2024/04/05 02:44:27;;;;;;;11.40;7.15;;;11.30;78.80;;;;;;5013585;28;20044;-72
2024/04/05 02:46:53;;;;;;;11.38;7.05;;;11.40;78.40;;;;;;4996882;28;20087;-71
2024/04/05 02:49:19;;;;;;;8.70;6.07;;;11.50;77.80;;;;;;5028878;28;20062;-71
2024/04/05 02:51:46;;;;;;;10.07;6.00;;;11.60;77.50;;;;;;4993819;28;20096;-71
2024/04/05 02:54:12;;;;;;;8.32;6.00;;;11.60;76.80;;;;;;5023751;28;20029;-72
2024/04/05 02:56:38;;;;;;;11.25;5.78;;;11.60;77.00;;;;;;4997165;28;20370;-72
2024/04/05 02:59:04;;;;;;;8.77;5.80;;;11.50;77.00;;;;;;5012893;28;20363;-73
2024/04/05 03:01:31;;;;;;;8.65;5.70;;;11.30;77.30;;;;;;5013608;28;20040;-72
2024/04/05 03:03:57;;;;;;;8.82;6.03;;;11.30;77.70;;;;;;5012602;28;20049;-73
2024/04/05 03:06:23;;;;;;;9.15;5.93;;;11.30;78.00;;;;;;5029708;28;20076;-73
2024/04/05 03:08:49;;;;;;;9.20;5.60;;;11.20;77.90;;;;;;5012958;28;20049;-73
2024/04/05 03:11:15;;;;;;;8.95;6.22;;;11.30;77.80;;;;;;4989182;28;20041;-71
2024/04/05 03:13:42;;;;;;;8.02;6.40;;;11.30;78.20;;;;;;5024244;28;20044;-72
2024/04/05 03:16:09;;;;;;;7.25;5.60;;;11.10;78.60;;;;;;5029808;28;20427;-72
2024/04/05 03:18:35;;;;;;;8.27;6.28;;;10.90;79.50;;;;;;4996165;28;20477;-72
2024/04/05 03:21:02;;;;;;;11.55;7.40;;;10.90;79.70;;;;;;5012958;28;20050;-72
2024/04/05 03:23:28;;;;;;;9.80;6.00;;;11.10;79.50;;;;;;5026930;28;20040;-72
2024/04/05 03:25:55;;;;;;;9.10;6.28;;;11.10;79.30;;;;;;5013081;28;20091;-72
2024/04/05 03:28:21;;;;;;;9.18;5.90;;;10.90;79.70;;;;;;5012632;28;20026;-72
2024/04/05 03:30:47;;;;;;;10.75;6.22;;;11.10;79.80;;;;;;5012744;28;20041;-73
2024/04/05 03:33:14;;;;;;;8.77;6.30;;;11.00;79.60;;;;;;5032311;28;20100;-72
2024/04/05 03:35:40;;;;;;;8.70;6.03;;;11.10;79.60;;;;;;5016925;28;20045;-71
2024/04/05 03:38:25;;;;;;;9.25;6.80;;;11.10;79.70;;;;;;5032845;28;20037;-74
2024/04/05 03:40:51;;;;;;;9.25;6.30;;;11.30;79.10;;;;;;5033348;28;20033;-72
2024/04/05 03:43:17;;;;;;;11.48;5.47;;;11.20;79.10;;;;;;5016374;28;20087;-72
2024/04/05 03:45:44;;;;;;;11.35;6.43;;;11.30;79.20;;;;;;5006903;28;20042;-72
2024/04/05 03:48:11;;;;;;;9.63;6.22;;;11.30;79.00;;;;;;5013819;28;20702;-73
2024/04/05 03:50:38;;;;;;;10.63;5.93;;;11.40;79.00;;;;;;5016313;28;20099;-72
2024/04/05 03:53:04;;;;;;;11.15;6.43;;;11.30;79.10;;;;;;4996803;28;20188;-72
2024/04/05 03:55:30;;;;;;;8.85;6.65;;;11.20;79.70;;;;;;4988860;28;20050;-72
2024/04/05 03:57:56;;;;;;;9.27;6.60;;;11.20;80.00;;;;;;5030856;28;20088;-72
2024/04/05 04:00:23;;;;;;;11.65;6.55;;;11.30;79.50;;;;;;5016317;28;20103;-73
2024/04/05 04:02:51;;;;;;;9.48;6.00;;;11.40;79.50;;;;;;5016139;28;20046;-74
2024/04/05 04:05:18;;;;;;;11.77;6.43;;;11.30;79.50;;;;;;5016297;28;20060;-73
2024/04/05 04:07:44;;;;;;;11.68;6.40;;;11.40;79.60;;;;;;5012921;28;20041;-73
2024/04/05 04:10:12;;;;;;;8.85;6.50;;;11.40;79.40;;;;;;5025753;28;20043;-72
2024/04/05 04:12:38;;;;;;;9.13;6.15;;;11.40;79.50;;;;;;5032424;28;20037;-72
2024/04/05 04:15:10;;;;;;;12.40;6.65;;;11.30;79.50;;;;;;5016132;28;20033;-74
2024/04/05 04:17:54;;;;;;;10.07;6.75;;;11.30;79.80;;;;;;5009179;28;20025;-72
2024/04/05 04:20:21;;;;;;;9.23;6.20;;;11.30;80.20;;;;;;4999625;28;20381;-74
2024/04/05 04:22:47;;;;;;;10.02;6.00;;;11.20;79.10;;;;;;5015298;28;20064;-72
2024/04/05 04:25:14;;;;;;;12.23;6.75;;;10.90;80.10;;;;;;5032361;28;20037;-72
2024/04/05 04:27:41;;;;;;;7.32;5.70;;;10.80;80.80;;;;;;5031825;28;20033;-72
2024/04/05 04:30:09;;;;;;;11.95;7.15;;;10.80;81.70;;;;;;5014500;28;20041;-71
2024/04/05 04:32:36;;;;;;;9.32;6.10;;;11.00;80.90;;;;;;5006757;28;20432;-72
2024/04/05 04:35:20;;;;;;;9.25;6.80;;;10.50;81.60;;;;;;5016283;28;20033;-72
2024/04/05 04:37:54;;;;;;;12.05;6.75;;;10.70;82.90;;;;;;5031932;28;20041;-72
2024/04/05 04:40:26;;;;;;;11.73;6.68;;;10.90;81.50;;;;;;4983634;28;20059;-70
2024/04/05 04:42:53;;;;;;;12.57;6.78;;;10.80;81.70;;;;;;5014873;28;20088;-72
2024/04/05 04:45:19;;;;;;;12.68;8.02;;;10.90;81.60;;;;;;5012094;28;20041;-74
2024/04/05 04:47:45;;;;;;;14.30;9.75;;;10.70;81.90;;;;;;4994821;28;20090;-72
2024/04/05 04:50:13;;;;;;;14.40;10.00;;;10.90;81.90;;;;;;4994829;28;20424;-73
2024/04/05 04:52:39;;;;;;;16.75;9.48;;;10.90;81.70;;;;;;5013831;28;20033;-74
2024/04/05 04:55:05;;;;;;;12.32;7.90;;;11.00;81.40;;;;;;5015205;28;20365;-73
2024/04/05 04:57:32;;;;;;;15.00;9.25;;;11.00;80.90;;;;;;5031490;28;20060;-73
2024/04/05 04:59:58;;;;;;;13.60;8.73;;;10.90;81.40;;;;;;5015178;28;20432;-73
2024/04/05 05:02:25;;;;;;;12.85;8.98;;;11.10;81.20;;;;;;5031069;28;20079;-71
2024/04/05 05:04:51;;;;;;;16.77;9.30;;;11.10;80.50;;;;;;5031571;28;20037;-72
2024/04/05 05:07:18;;;;;;;13.57;8.40;;;11.30;80.60;;;;;;4997993;28;20046;-72
2024/04/05 05:09:44;;;;;;;9.15;7.55;;;11.40;79.70;;;;;;4999115;28;20040;-72
2024/04/05 05:12:10;;;;;;;31.67;14.55;;;11.60;79.30;;;;;;5014302;28;20056;-71
2024/04/05 05:14:36;;;;;;;21.02;12.55;;;11.40;79.90;;;;;;4998391;28;20046;-71
2024/04/05 05:17:21;;;;;;;21.90;13.60;;;11.80;79.90;;;;;;5030440;28;21718;-73
2024/04/05 05:19:48;;;;;;;17.85;11.32;;;11.70;79.30;;;;;;5013069;28;20037;-71
2024/04/05 05:22:14;;;;;;;17.88;11.63;;;11.90;79.80;;;;;;4998907;28;20049;-71
2024/04/05 05:24:40;;;;;;;38.40;23.83;;;11.90;79.40;;;;;;4998324;28;20037;-71
2024/04/05 05:27:07;;;;;;;61.15;34.58;;;12.10;80.30;;;;;;4998236;28;20049;-72
2024/04/05 05:29:33;;;;;;;20.83;12.52;;;12.30;80.00;;;;;;4986803;28;20385;-73
2024/04/05 05:31:59;;;;;;;17.80;10.38;;;12.40;78.80;;;;;;4994802;28;20060;-74
2024/04/05 05:34:26;;;;;;;14.45;8.70;;;12.40;78.40;;;;;;4998066;28;20041;-72
2024/04/05 05:36:52;;;;;;;14.20;8.93;;;12.40;78.00;;;;;;5014005;28;20045;-72
2024/04/05 05:39:21;;;;;;;17.80;9.73;;;12.20;78.50;;;;;;5014071;28;20500;-72
2024/04/05 05:41:48;;;;;;;12.88;8.80;;;12.40;79.00;;;;;;4997374;28;20091;-71
2024/04/05 05:44:14;;;;;;;16.73;9.77;;;12.40;77.70;;;;;;5030539;28;20048;-74
2024/04/05 05:46:40;;;;;;;17.17;9.63;;;12.40;78.80;;;;;;5014200;28;20037;-73
2024/04/05 05:49:07;;;;;;;19.40;10.23;;;12.60;78.20;;;;;;5030693;28;20052;-73
2024/04/05 05:51:33;;;;;;;17.80;10.63;;;12.40;77.70;;;;;;5002717;28;20080;-71
2024/04/05 05:53:59;;;;;;;18.58;9.85;;;12.20;78.50;;;;;;5013429;28;20489;-73
2024/04/05 05:56:25;;;;;;;13.07;9.25;;;11.90;79.30;;;;;;4997679;28;20053;-72
2024/04/05 05:58:52;;;;;;;16.35;8.80;;;11.80;80.40;;;;;;5014248;28;20045;-72
2024/04/05 06:01:18;;;;;;;47.35;25.90;;;11.90;80.40;;;;;;5013377;28;20068;-72
2024/04/05 06:03:44;;;;;;;97.20;52.45;;;12.20;80.00;;;;;;5013925;28;20034;-72
2024/04/05 06:06:12;;;;;;;17.52;13.40;;;12.70;78.60;;;;;;5030471;28;20048;-72
2024/04/05 06:08:40;;;;;;;17.55;9.32;;;12.60;77.50;;;;;;5014009;28;20047;-72
2024/04/05 06:11:06;;;;;;;13.90;8.10;;;12.60;77.60;;;;;;5023219;28;20030;-72
2024/04/05 06:13:33;;;;;;;16.13;8.27;;;12.50;78.10;;;;;;4994873;28;20065;-73
2024/04/05 06:16:00;;;;;;;21.15;8.45;;;12.50;78.80;;;;;;4996287;28;20497;-75
2024/04/05 06:18:28;;;;;;;12.68;8.15;;;12.50;79.10;;;;;;4996491;28;20045;-74
2024/04/05 06:20:55;;;;;;;20.17;8.15;;;12.60;79.20;;;;;;5028131;28;20030;-73
2024/04/05 06:23:23;;;;;;;11.10;8.05;;;12.60;78.60;;;;;;5013248;28;20034;-72
2024/04/05 06:25:51;;;;;;;14.00;7.95;;;12.70;78.50;;;;;;5013303;28;20041;-75
2024/04/05 06:28:18;;;;;;;20.23;7.90;;;12.80;77.80;;;;;;5013379;28;20495;-72
2024/04/05 06:30:44;;;;;;;14.90;8.05;;;12.80;77.30;;;;;;4996428;28;20396;-74
2024/04/05 06:33:10;;;;;;;20.23;8.25;;;12.90;77.40;;;;;;5013804;28;20045;-73
2024/04/05 06:35:37;;;;;;;14.88;7.97;;;12.80;77.50;;;;;;5013399;28;20053;-73
2024/04/05 06:38:04;;;;;;;17.17;8.63;;;13.00;77.90;;;;;;4994169;28;20042;-73
2024/04/05 06:40:31;;;;;;;14.95;8.40;;;13.00;78.50;;;;;;5029733;28;20049;-72
2024/04/05 06:42:57;;;;;;;15.50;8.38;;;13.10;78.40;;;;;;5029502;28;20473;-72
2024/04/05 06:45:27;;;;;;;11.77;7.35;;;13.20;78.40;;;;;;5013799;28;20041;-75
2024/04/05 06:47:55;;;;;;;;;;;13.20;77.30;;;;;;5013526;28;20064;-73
2024/04/05 06:50:25;;;;;;;16.13;8.35;;;13.30;76.70;;;;;;5013340;28;20245;-73
2024/04/05 06:53:00;;;;;;;11.80;7.43;;;13.50;76.30;;;;;;5013336;28;20054;-74
2024/04/05 06:55:26;;;;;;;13.93;8.30;;;13.50;76.20;;;;;;5030102;28;20044;-74
2024/04/05 06:57:53;;;;;;;13.20;7.18;;;13.70;77.30;;;;;;5012390;28;20041;-74
2024/04/05 07:00:20;;;;;;;18.27;7.82;;;13.60;77.00;;;;;;4997427;28;20030;-72
2024/04/05 07:02:47;;;;;;;12.98;7.57;;;13.60;76.30;;;;;;5013367;28;20486;-72
2024/04/05 07:05:14;;;;;;;11.80;7.43;;;13.70;76.50;;;;;;5013606;28;20037;-74
2024/04/05 07:07:41;;;;;;;12.27;6.90;;;13.60;76.10;;;;;;5017202;28;20053;-71
2024/04/05 07:10:07;;;;;;;15.93;8.05;;;13.60;75.90;;;;;;5016891;28;20033;-71
2024/04/05 07:12:34;;;;;;;13.32;8.15;;;13.60;75.80;;;;;;5033710;28;20036;-75
2024/04/05 07:15:01;;;;;;;19.92;8.60;;;13.80;75.00;;;;;;5017417;28;20637;-73
2024/04/05 07:17:28;;;;;;;16.17;8.95;;;13.80;74.90;;;;;;5016832;28;20444;-74
2024/04/05 07:19:55;;;;;;;22.73;8.57;;;13.90;74.90;;;;;;5028346;28;20039;-71
2024/04/05 07:22:27;;;;;;;11.95;7.55;;;14.00;74.50;;;;;;5017591;28;20393;-74
2024/04/05 07:24:53;;;;;;;13.25;7.60;;;14.00;74.20;;;;;;5016353;28;20052;-73
2024/04/05 07:27:20;;;;;;;13.43;7.47;;;14.20;73.80;;;;;;5000011;28;20033;-72
2024/04/05 07:29:49;;;;;;;16.80;7.85;;;14.30;74.30;;;;;;5015433;28;20512;-70
2024/04/05 07:32:16;;;;;;;18.45;8.57;;;14.60;74.40;;;;;;5011784;28;20034;-73
2024/04/05 07:34:42;;;;;;;14.55;7.60;;;14.80;72.50;;;;;;5000427;28;20045;-74
2024/04/05 07:37:09;;;;;;;16.08;7.72;;;14.70;72.60;;;;;;5016827;28;20507;-75
2024/04/05 07:39:39;;;;;;;13.38;7.07;;;14.80;73.00;;;;;;5033409;28;20075;-74
2024/04/05 07:42:05;;;;;;;22.95;7.13;;;14.90;72.00;;;;;;5015901;28;20495;-75
2024/04/05 07:44:32;;;;;;;11.90;6.78;;;15.00;71.70;;;;;;5001502;28;20508;-77
2024/04/05 07:46:58;;;;;;;15.38;6.05;;;15.00;71.60;;;;;;5001115;28;20060;-75
2024/04/05 07:49:26;;;;;;;12.15;7.40;;;15.00;71.10;;;;;;5000610;28;20041;-73
2024/04/05 07:52:05;;;;;;;10.73;6.95;;;15.00;71.90;;;;;;5016074;28;20034;-75
2024/04/05 07:54:32;;;;;;;9.75;6.68;;;15.30;71.50;;;;;;5028489;28;20087;-73
2024/04/05 07:56:59;;;;;;;18.08;6.65;;;15.20;71.70;;;;;;5000432;28;20411;-77
2024/04/05 07:59:25;;;;;;;9.98;6.10;;;15.30;70.90;;;;;;5033382;28;20033;-75
2024/04/05 08:01:51;;;;;;;10.60;6.47;;;15.50;70.80;;;;;;4990843;28;20046;-72
2024/04/05 08:04:18;;;;;;;9.45;6.22;;;15.30;70.00;;;;;;5014761;28;20045;-76
2024/04/05 08:06:45;;;;;;;14.60;6.43;;;15.40;70.90;;;;;;5032423;28;20043;-76
2024/04/05 08:09:11;;;;;;;8.80;5.57;;;15.60;70.90;;;;;;4988761;28;20048;-75
2024/04/05 08:11:37;;;;;;;9.07;6.07;;;15.70;70.00;;;;;;5007332;28;20045;-76
2024/04/05 08:14:04;;;;;;;8.98;5.80;;;15.80;69.60;;;;;;5013457;28;20036;-76
2024/04/05 08:16:30;;;;;;;9.85;6.25;;;15.90;70.40;;;;;;4994256;28;20072;-75
2024/04/05 08:18:56;;;;;;;14.93;6.00;;;15.80;70.30;;;;;;4998320;28;20044;-74
2024/04/05 08:21:23;;;;;;;10.93;6.20;;;15.90;70.00;;;;;;4983278;28;20045;-75
2024/04/05 08:23:50;;;;;;;11.15;5.13;;;16.10;69.60;;;;;;4997959;28;20041;-74
2024/04/05 08:26:17;;;;;;;9.20;5.43;;;16.20;68.50;;;;;;4995205;28;20052;-74
2024/04/05 08:28:44;;;;;;;9.07;5.30;;;16.40;68.10;;;;;;5002057;28;20420;-75
2024/04/05 08:31:10;;;;;;;9.98;4.63;;;16.70;67.10;;;;;;5011473;28;20030;-74
2024/04/05 08:33:36;;;;;;;7.03;4.63;;;16.90;65.50;;;;;;5016260;28;20034;-75
2024/04/05 08:36:04;;;;;;;9.02;4.68;;;17.10;65.60;;;;;;4996586;28;20408;-76
2024/04/05 08:38:30;;;;;;;7.95;4.95;;;17.30;65.20;;;;;;4998948;28;20432;-75
2024/04/05 08:40:58;;;;;;;7.32;4.35;;;17.30;65.60;;;;;;4999711;28;20366;-75
2024/04/05 08:43:30;;;;;;;8.98;4.95;;;17.40;66.30;;;;;;4996430;28;20073;-74
2024/04/05 08:45:57;;;;;;;8.68;5.00;;;17.70;65.90;;;;;;4995802;28;20037;-75
2024/04/05 08:48:32;;;;;;;7.55;4.68;;;18.00;65.80;;;;;;4996279;28;20424;-74
2024/04/05 08:50:59;;;;;;;7.68;4.40;;;18.10;65.10;;;;;;5009835;28;20037;-72
2024/04/05 08:53:25;;;;;;;7.38;4.88;;;18.20;65.50;;;;;;5015346;28;20026;-73
2024/04/05 08:55:55;;;;;;;7.43;4.28;;;18.40;64.70;;;;;;4990101;28;20041;-74
2024/04/05 08:58:22;;;;;;;8.17;4.40;;;18.40;63.50;;;;;;5015526;28;20033;-72
2024/04/05 09:00:48;;;;;;;7.30;3.92;;;18.60;63.40;;;;;;5029920;28;20282;-71
2024/04/05 09:03:14;;;;;;;9.23;4.03;;;18.60;62.50;;;;;;5013830;28;20049;-72
2024/04/05 09:05:41;;;;;;;7.82;4.22;;;18.60;61.60;;;;;;5030383;28;20065;-71
2024/04/05 09:08:08;;;;;;;7.32;3.92;;;18.80;61.40;;;;;;5012250;28;20064;-71
2024/04/05 09:10:35;;;;;;;10.55;4.22;;;18.90;60.90;;;;;;5014949;28;20136;-73
2024/04/05 09:13:06;;;;;;;13.70;4.70;;;19.00;61.40;;;;;;4996565;28;20049;-74
2024/04/05 09:15:33;;;;;;;10.63;4.47;;;19.10;61.20;;;;;;4993253;28;20040;-72
2024/04/05 09:18:00;;;;;;;10.32;4.13;;;19.30;60.60;;;;;;5030772;28;20041;-72
2024/04/05 09:20:29;;;;;;;7.82;4.32;;;19.30;60.20;;;;;;5009661;28;20064;-71
2024/04/05 09:23:06;;;;;;;7.80;4.10;;;19.40;60.70;;;;;;5010237;28;20042;-73
2024/04/05 09:25:38;;;;;;;5.90;3.95;;;19.70;61.80;;;;;;4994037;28;20481;-72
2024/04/05 09:28:20;;;;;;;7.57;4.72;;;19.80;60.00;;;;;;5013483;28;20038;-72
2024/04/05 09:30:48;;;;;;;7.10;3.42;;;19.70;59.80;;;;;;5006375;28;20228;-73
2024/04/05 09:33:21;;;;;;;8.18;3.33;;;19.60;59.40;;;;;;5012371;28;20049;-71
2024/04/05 09:35:48;;;;;;;7.95;3.35;;;19.60;58.60;;;;;;5011875;28;20095;-74
2024/04/05 09:38:19;;;;;;;6.32;3.40;;;19.70;58.10;;;;;;4995409;28;20432;-74
2024/04/05 09:40:48;;;;;;;9.02;3.70;;;19.90;59.10;;;;;;5015173;28;20482;-75
2024/04/05 09:43:17;;;;;;;8.63;3.38;;;20.00;58.20;;;;;;4998859;28;20057;-76
2024/04/05 09:45:47;;;;;;;6.82;3.60;;;20.00;58.20;;;;;;4997425;28;20049;-74
2024/04/05 09:48:13;;;;;;;8.77;3.38;;;20.00;57.90;;;;;;5005412;28;20075;-72
2024/04/05 09:50:40;;;;;;;8.30;3.42;;;20.20;57.30;;;;;;4997446;28;20053;-73
2024/04/05 09:53:08;;;;;;;6.97;3.70;;;20.40;58.40;;;;;;5014595;28;20068;-72
2024/04/05 09:55:42;;;;;;;8.68;3.25;;;20.70;57.10;;;;;;5014838;28;20087;-73
2024/04/05 09:58:14;;;;;;;10.07;3.30;;;20.70;56.20;;;;;;5003081;28;20046;-74
2024/04/05 10:00:46;;;;;;;8.60;3.28;;;20.80;56.10;;;;;;5008413;28;20041;-73
2024/04/05 10:03:13;;;;;;;11.25;3.35;;;21.00;54.90;;;;;;4986850;28;20392;-76
2024/04/05 10:05:39;;;;;;;12.30;3.97;;;21.00;54.60;;;;;;4998469;28;20045;-75
2024/04/05 10:08:15;;;;;;;9.10;3.90;;;21.00;55.50;;;;;;5015387;28;20041;-75
2024/04/05 10:10:41;;;;;;;10.35;4.00;;;21.20;55.50;;;;;;5013933;28;20052;-73
2024/04/05 10:13:18;;;;;;;7.72;3.90;;;21.30;55.00;;;;;;5014187;28;20041;-73
2024/04/05 10:15:59;;;;;;;8.63;3.60;;;21.60;55.60;;;;;;4992768;28;20544;-74
2024/04/05 10:18:32;;;;;;;13.02;6.50;;;21.50;54.90;;;;;;5007018;28;20432;-73
2024/04/05 10:21:10;;;;;;;7.03;3.83;;;21.80;56.80;;;;;;5011605;28;20511;-70
2024/04/05 10:23:44;;;;;;;9.43;3.90;;;22.00;54.90;;;;;;5029857;28;20049;-74
2024/04/05 10:26:13;;;;;;;10.02;3.90;;;22.00;54.20;;;;;;4997399;28;20041;-72
2024/04/05 10:28:40;;;;;;;14.73;7.18;;;22.00;53.80;;;;;;5013593;28;20040;-74
2024/04/05 10:31:06;;;;;;;6.45;3.53;;;22.10;56.10;;;;;;5013740;28;20048;-74
2024/04/05 10:33:34;;;;;;;9.57;3.35;;;22.20;54.30;;;;;;5008443;28;20848;-73
2024/04/05 10:36:00;;;;;;;7.68;4.15;;;22.20;55.10;;;;;;4994521;28;20052;-72
2024/04/05 10:38:29;;;;;;;8.52;4.18;;;22.50;55.60;;;;;;4996686;28;20041;-74
2024/04/05 10:41:01;;;;;;;8.38;3.20;;;22.60;54.90;;;;;;4997713;28;20029;-74
2024/04/05 10:43:28;;;;;;;11.60;4.28;;;22.60;54.70;;;;;;4977573;28;20393;-73
2024/04/05 10:45:58;;;;;;;10.27;3.13;;;22.80;54.60;;;;;;5006786;28;20045;-73
2024/04/05 10:48:25;;;;;;;9.52;4.45;;;22.70;54.10;;;;;;4996727;28;20347;-72
2024/04/05 10:50:58;;;;;;;9.63;3.30;;;22.80;54.20;;;;;;4998335;28;20052;-75
2024/04/05 10:53:24;;;;;;;6.03;3.13;;;22.90;53.50;;;;;;4990408;28;20037;-74
2024/04/05 10:55:53;;;;;;;6.63;3.03;;;22.90;53.70;;;;;;5011640;28;20041;-75
2024/04/05 10:58:21;;;;;;;6.22;3.40;;;23.00;53.90;;;;;;5028195;28;20026;-74
2024/04/05 11:00:47;;;;;;;7.43;2.83;;;23.20;52.50;;;;;;5029889;28;20048;-74
2024/04/05 11:03:14;;;;;;;8.48;3.47;;;23.40;51.50;;;;;;5009095;28;20037;-75
2024/04/05 11:05:41;;;;;;;11.77;3.33;;;23.40;52.50;;;;;;4996327;28;20056;-74
2024/04/05 11:08:10;;;;;;;7.28;3.33;;;23.60;52.50;;;;;;5009517;28;20407;-73
2024/04/05 11:10:40;;;;;;;8.50;2.85;;;23.90;51.60;;;;;;5013104;28;20048;-74
2024/04/05 11:13:20;;;;;;;4.38;2.13;;;24.10;50.70;;;;;;5012282;28;20064;-73
2024/04/05 11:15:58;;;;;;;6.63;2.50;;;23.90;49.10;;;;;;5028367;28;20465;-74
2024/04/05 11:18:25;;;;;;;5.60;2.25;;;24.10;48.90;;;;;;5029038;28;20079;-75
2024/04/05 11:20:51;;;;;;;7.53;2.60;;;24.00;49.30;;;;;;5028966;28;20033;-74
2024/04/05 11:23:21;;;;;;;5.47;2.58;;;24.20;50.20;;;;;;5012236;28;20042;-74
2024/04/05 11:25:52;;;;;;;6.05;2.22;;;24.40;50.30;;;;;;4995432;28;20042;-72
2024/04/05 11:28:22;;;;;;;7.20;2.50;;;24.40;49.80;;;;;;5012297;28;20418;-74
2024/04/05 11:30:54;;;;;;;6.45;2.50;;;24.60;50.30;;;;;;4993160;28;20041;-75
2024/04/05 11:33:20;;;;;;;6.72;2.30;;;24.90;49.80;;;;;;5028160;28;20083;-74
2024/04/05 11:35:47;;;;;;;4.32;2.10;;;25.10;48.60;;;;;;5029185;28;20060;-74
2024/04/05 11:38:13;;;;;;;5.20;2.13;;;25.10;49.20;;;;;;5028293;28;20026;-75
2024/04/05 11:40:40;;;;;;;5.18;2.45;;;25.10;48.50;;;;;;5028255;28;20060;-73
2024/04/05 11:43:08;;;;;;;11.85;2.80;;;25.30;48.30;;;;;;5028288;28;20030;-77
2024/04/05 11:45:38;;;;;;;5.70;2.47;;;25.70;48.20;;;;;;5028697;28;20048;-73
2024/04/05 11:48:06;;;;;;;4.45;2.45;;;25.60;47.40;;;;;;5007232;28;20033;-75
2024/04/05 11:50:35;;;;;;;4.57;2.33;;;26.00;48.40;;;;;;4996329;28;20049;-74
2024/04/05 11:53:02;;;;;;;3.83;1.90;;;25.80;47.10;;;;;;4996647;28;20045;-76
2024/04/05 11:55:29;;;;;;;5.90;2.53;;;25.40;47.30;;;;;;4996395;28;20038;-74
2024/04/05 11:57:55;;;;;;;7.20;2.40;;;25.40;47.30;;;;;;5030460;28;20034;-75
2024/04/05 12:00:21;;;;;;;4.95;2.28;;;25.70;47.90;;;;;;4997049;28;20060;-74
2024/04/05 12:02:47;;;;;;;7.85;2.17;;;26.20;47.80;;;;;;5014107;28;20030;-74
2024/04/05 12:05:16;;;;;;;4.45;2.20;;;27.90;47.60;;;;;;5017055;28;20431;-74
2024/04/05 12:07:42;;;;;;;5.38;2.03;;;30.70;45.80;;;;;;5017595;28;20025;-73
2024/04/05 12:10:09;;;;;;;4.63;2.10;;;32.10;43.80;;;;;;5015370;28;20037;-74
2024/04/05 12:12:36;;;;;;;6.65;2.28;;;32.90;42.20;;;;;;5015812;28;20034;-76
2024/04/05 12:15:03;;;;;;;4.40;2.22;;;33.90;40.90;;;;;;5014815;28;20104;-76
2024/04/05 12:17:30;;;;;;;8.65;2.60;;;35.20;40.10;;;;;;5017407;28;20128;-74
2024/04/05 12:19:57;;;;;;;6.28;2.22;;;36.20;39.00;;;;;;5016766;28;20033;-74
2024/04/05 12:22:23;;;;;;;4.95;2.05;;;36.60;38.40;;;;;;5032685;28;20480;-76
2024/04/05 12:24:49;;;;;;;5.55;2.25;;;35.80;39.40;;;;;;5016162;28;20416;-73
2024/04/05 12:27:16;;;;;;;4.30;1.80;;;35.40;39.50;;;;;;4999737;28;20443;-74
2024/04/05 12:29:47;;;;;;;4.28;1.70;;;35.60;40.20;;;;;;4999374;28;20033;-74
2024/04/05 12:32:15;;;;;;;4.45;1.90;;;35.50;39.00;;;;;;4988447;28;20066;-73
2024/04/05 12:34:42;;;;;;;3.38;1.73;;;35.70;38.40;;;;;;5008712;28;20053;-75
2024/04/05 12:37:09;;;;;;;5.00;2.03;;;36.30;37.80;;;;;;4996216;28;20045;-72
2024/04/05 12:39:36;;;;;;;6.63;1.95;;;37.00;37.30;;;;;;5009439;28;20366;-75
2024/04/05 12:42:04;;;;;;;3.75;1.60;;;37.70;37.80;;;;;;5015514;28;20049;-73
2024/04/05 12:44:30;;;;;;;3.72;1.60;;;37.50;37.40;;;;;;5031788;28;20480;-76
2024/04/05 12:46:57;;;;;;;4.03;1.85;;;36.90;37.90;;;;;;5032152;28;20036;-75
2024/04/05 12:49:23;;;;;;;3.42;1.70;;;36.80;37.50;;;;;;5031447;28;20049;-75
2024/04/05 12:51:50;;;;;;;4.55;1.70;;;36.50;38.20;;;;;;5015521;28;20050;-73
2024/04/05 12:54:16;;;;;;;3.92;1.50;;;35.40;38.40;;;;;;5031840;28;20033;-74
2024/04/05 12:56:43;;;;;;;4.60;2.08;;;36.50;38.70;;;;;;5015775;28;20045;-75
2024/04/05 12:59:10;;;;;;;4.30;1.40;;;36.50;37.70;;;;;;5015498;28;20036;-75
2024/04/05 13:01:36;;;;;;;5.93;1.88;;;37.30;37.00;;;;;;4996709;28;20050;-75
2024/04/05 13:04:03;;;;;;;5.22;1.73;;;37.90;37.60;;;;;;5010810;28;20046;-76